EWG462 LPPS-LPMA
Flight info
| Callsign | EWG462 |
|---|---|
| Flight time | N/A |
| Altitude | 7000 |
| Route | PILIM |
| Aircraft | A319/M-SDE3FGHIRWY/LB1 |
Departure
| Time | 2026-04-23 13:26 |
|---|---|
| Airport | Porto Santo Airport (LPPS) |
Arrival
| Time | N/A |
|---|---|
| Airport | Cristiano Ronaldo International Airport (LPMA) |
| Time | Latitude | Longitude | Altitude | Speed | Heading |
|---|---|---|---|---|---|
| 2026-04-23 13:23 | 33.08744 | -16.35291 | 332 ft | 0 kts | 210° |
| 2026-04-23 13:24 | 33.08739 | -16.35290 | 332 ft | 0 kts | 166° |
| 2026-04-23 13:24 | 33.08732 | -16.35271 | 331 ft | 6 kts | 94° |
| 2026-04-23 13:24 | 33.08766 | -16.35265 | 332 ft | 2 kts | 290° |
| 2026-04-23 13:25 | 33.08752 | -16.35277 | 330 ft | 6 kts | 211° |
| 2026-04-23 13:25 | 33.08743 | -16.35270 | 327 ft | 4 kts | 92° |
| 2026-04-23 13:25 | 33.08743 | -16.35185 | 333 ft | 11 kts | 113° |
| 2026-04-23 13:25 | 33.08668 | -16.35044 | 331 ft | 23 kts | 137° |
| 2026-04-23 13:26 | 33.08474 | -16.35036 | 327 ft | 65 kts | 179° |
| 2026-04-23 13:26 | 33.07681 | -16.35019 | 303 ft | 157 kts | 179° |
| 2026-04-23 13:26 | 33.06534 | -16.34925 | 934 ft | 171 kts | 178° |
| 2026-04-23 13:26 | 33.05342 | -16.35077 | 1648 ft | 181 kts | 203° |
| 2026-04-23 13:27 | 33.04301 | -16.35973 | 2304 ft | 192 kts | 227° |
| 2026-04-23 13:27 | 33.03269 | -16.37109 | 2792 ft | 216 kts | 208° |
| 2026-04-23 13:27 | 33.01718 | -16.37383 | 3281 ft | 240 kts | 175° |
| 2026-04-23 13:27 | 33.00036 | -16.37343 | 4127 ft | 245 kts | 193° |
| 2026-04-23 13:28 | 32.98525 | -16.38357 | 4841 ft | 260 kts | 230° |
| 2026-04-23 13:28 | 32.97816 | -16.40312 | 5806 ft | 263 kts | 265° |
| 2026-04-23 13:28 | 32.98169 | -16.42443 | 6604 ft | 268 kts | 296° |
| 2026-04-23 13:28 | 32.99453 | -16.44028 | 6876 ft | 272 kts | 329° |
| 2026-04-23 13:29 | 33.01278 | -16.44504 | 6961 ft | 280 kts | 2° |
| 2026-04-23 13:29 | 33.03093 | -16.43675 | 6951 ft | 287 kts | 37° |
| 2026-04-23 13:29 | 33.04256 | -16.41755 | 6949 ft | 291 kts | 71° |
| 2026-04-23 13:29 | 33.04431 | -16.39368 | 6954 ft | 292 kts | 95° |
| 2026-04-23 13:30 | 33.04219 | -16.36959 | 6950 ft | 292 kts | 104° |
| 2026-04-23 13:30 | 33.03286 | -16.34874 | 6944 ft | 286 kts | 139° |
| 2026-04-23 13:30 | 33.01584 | -16.33766 | 6951 ft | 279 kts | 173° |
| 2026-04-23 13:30 | 32.99715 | -16.33981 | 6949 ft | 269 kts | 207° |
| 2026-04-23 13:31 | 32.98348 | -16.35408 | 7029 ft | 263 kts | 241° |
| 2026-04-23 13:31 | 32.97587 | -16.37354 | 7049 ft | 263 kts | 248° |
| 2026-04-23 13:31 | 32.96868 | -16.39357 | 7052 ft | 263 kts | 248° |
| 2026-04-23 13:31 | 32.96151 | -16.41364 | 7052 ft | 263 kts | 248° |
| 2026-04-23 13:32 | 32.95438 | -16.43371 | 7054 ft | 263 kts | 248° |
| 2026-04-23 13:32 | 32.94686 | -16.45358 | 6878 ft | 262 kts | 243° |
| 2026-04-23 13:32 | 32.93690 | -16.47161 | 6467 ft | 261 kts | 234° |
| 2026-04-23 13:32 | 32.92558 | -16.48846 | 6012 ft | 260 kts | 232° |
| 2026-04-23 13:33 | 32.91387 | -16.50490 | 5559 ft | 260 kts | 231° |
| 2026-04-23 13:33 | 32.90217 | -16.52129 | 5100 ft | 260 kts | 231° |
| 2026-04-23 13:33 | 32.89074 | -16.53752 | 4650 ft | 259 kts | 231° |
| 2026-04-23 13:33 | 32.87928 | -16.55404 | 4185 ft | 259 kts | 231° |
| 2026-04-23 13:34 | 32.86796 | -16.57061 | 3727 ft | 258 kts | 232° |
| 2026-04-23 13:34 | 32.85848 | -16.58860 | 3266 ft | 257 kts | 247° |
| 2026-04-23 13:34 | 32.85355 | -16.60886 | 2800 ft | 255 kts | 262° |
| 2026-04-23 13:34 | 32.84979 | -16.62944 | 2341 ft | 255 kts | 248° |
| 2026-04-23 13:35 | 32.84004 | -16.64686 | 2018 ft | 253 kts | 226° |
| 2026-04-23 13:35 | 32.82633 | -16.65924 | 1902 ft | 242 kts | 209° |
| 2026-04-23 13:35 | 32.81159 | -16.66767 | 1804 ft | 228 kts | 209° |
| 2026-04-23 13:35 | 32.79787 | -16.67558 | 1699 ft | 217 kts | 210° |
| 2026-04-23 13:36 | 32.78469 | -16.68326 | 1600 ft | 205 kts | 210° |
| 2026-04-23 13:36 | 32.77226 | -16.69052 | 1494 ft | 193 kts | 210° |
| 2026-04-23 13:36 | 32.76047 | -16.69742 | 1410 ft | 185 kts | 211° |
| 2026-04-23 13:36 | 32.74915 | -16.70404 | 1378 ft | 174 kts | 210° |
| 2026-04-23 13:37 | 32.73895 | -16.71002 | 1378 ft | 156 kts | 212° |
| 2026-04-23 13:37 | 32.72979 | -16.71551 | 1378 ft | 140 kts | 213° |
| 2026-04-23 13:37 | 32.72149 | -16.72051 | 1382 ft | 126 kts | 212° |
| 2026-04-23 13:37 | 32.71390 | -16.72510 | 1378 ft | 121 kts | 211° |
| 2026-04-23 13:38 | 32.70649 | -16.72962 | 1383 ft | 121 kts | 213° |
| 2026-04-23 13:38 | 32.69905 | -16.73414 | 1386 ft | 119 kts | 214° |
| 2026-04-23 13:38 | 32.69177 | -16.73855 | 1384 ft | 117 kts | 214° |